Time;durP1;ratioP1;P1;durP2;ratioP2;P2;SDS_P1;SDS_P2;PMS_P1;PMS_P2;Temp;Humidity;BMP_temperature;BMP_pressure;BME280_temperature;BME280_humidity;BME280_pressure;Samples;Min_cycle;Max_cycle;Signal;HPM_P1;HPM_P2
2022/03/22 00:01:40;;;;;;;64.67;40.98;;;;;;;3.35;57.30;102276.07;2876132;82;21000;-68
2022/03/22 00:05:44;;;;;;;63.13;39.40;;;;;;;3.25;57.55;102276.70;2876453;82;20976;-68
2022/03/22 00:09:45;;;;;;;62.75;36.95;;;;;;;3.14;57.84;102279.50;2875480;82;21063;-69
2022/03/22 00:13:47;;;;;;;70.10;42.80;;;;;;;3.03;58.34;102283.64;2875396;82;20999;-69
2022/03/22 00:17:49;;;;;;;76.85;45.48;;;;;;;3.00;58.34;102283.70;2875652;82;21031;-69
2022/03/22 00:21:50;;;;;;;71.75;41.15;;;;;;;2.80;58.97;102282.75;2875566;82;21016;-69
2022/03/22 00:25:52;;;;;;;73.83;42.83;;;;;;;2.74;59.11;102281.52;2875664;82;21003;-69
2022/03/22 00:29:54;;;;;;;73.00;43.68;;;;;;;2.66;59.84;102279.05;2875634;82;21007;-69
2022/03/22 00:33:55;;;;;;;83.70;44.60;;;;;;;2.57;59.84;102282.69;2875568;82;20999;-69
2022/03/22 00:37:59;;;;;;;71.22;40.10;;;;;;;2.54;59.90;102281.41;2875559;82;20988;-69
2022/03/22 00:42:00;;;;;;;67.40;43.85;;;;;;;2.54;60.01;102277.03;2875298;82;20988;-69
2022/03/22 00:46:03;;;;;;;73.70;43.05;;;;;;;2.65;59.79;102279.48;2875389;82;21015;-68
2022/03/22 00:50:06;;;;;;;78.83;44.03;;;;;;;2.74;59.62;102271.00;2875586;82;21627;-69
2022/03/22 00:54:08;;;;;;;71.12;46.73;;;;;;;2.73;59.63;102274.09;2879034;82;21056;-69
2022/03/22 00:58:10;;;;;;;68.15;42.03;;;;;;;2.64;60.26;102272.92;2879854;82;21513;-69
2022/03/22 01:02:12;;;;;;;77.67;44.30;;;;;;;2.47;61.07;102269.27;2879734;82;21031;-69
2022/03/22 01:06:13;;;;;;;77.22;42.78;;;;;;;2.33;61.31;102267.72;2880056;82;21602;-69
2022/03/22 01:10:17;;;;;;;64.90;42.25;;;;;;;2.35;61.73;102267.24;2879799;82;21023;-69
2022/03/22 01:14:18;;;;;;;75.35;48.65;;;;;;;2.32;61.74;102260.73;2879728;82;21000;-68
2022/03/22 01:18:23;;;;;;;82.70;45.25;;;;;;;2.41;61.40;102257.98;2879914;82;20968;-68
2022/03/22 01:22:25;;;;;;;80.47;48.40;;;;;;;2.29;62.04;102255.53;2879470;82;21007;-69
2022/03/22 01:26:27;;;;;;;84.15;48.05;;;;;;;2.38;61.66;102258.45;2879651;82;21461;-69
2022/03/22 01:30:29;;;;;;;85.25;50.05;;;;;;;2.36;61.87;102257.19;2879567;82;21028;-69
2022/03/22 01:34:31;;;;;;;100.25;57.90;;;;;;;2.49;61.16;102259.17;2879642;82;22025;-69
2022/03/22 01:38:33;;;;;;;132.72;75.35;;;;;;;2.56;60.85;102254.69;2879708;82;20988;-69
2022/03/22 01:42:36;;;;;;;105.32;64.97;;;;;;;2.58;60.69;102256.84;2879610;81;21106;-69
2022/03/22 01:46:39;;;;;;;63.50;41.02;;;;;;;2.65;60.78;102254.95;2879700;82;21011;-68
2022/03/22 01:50:41;;;;;;;70.42;42.73;;;;;;;2.37;61.54;102246.22;2879597;82;20988;-68
2022/03/22 01:54:42;;;;;;;83.27;45.60;;;;;;;2.32;61.51;102245.44;2883441;82;21035;-69
2022/03/22 01:58:44;;;;;;;72.70;44.83;;;;;;;2.27;61.81;102242.88;2884079;82;21607;-69
2022/03/22 02:07:04;;;;;;;78.80;44.48;;;;;;;2.05;62.68;102239.27;2884058;82;21559;-68
2022/03/22 02:11:06;;;;;;;71.42;44.85;;;;;;;2.04;62.50;102237.53;2883844;82;21516;-69
2022/03/22 02:15:08;;;;;;;145.57;77.17;;;;;;;2.11;62.28;102238.31;2883822;82;21035;-69
2022/03/22 02:19:10;;;;;;;91.72;51.77;;;;;;;2.25;61.79;102234.16;2884001;82;20995;-68
2022/03/22 02:23:37;;;;;;;128.23;73.35;;;;;;;2.12;62.32;102234.33;2883946;82;21055;-69
2022/03/22 02:27:39;;;;;;;74.85;46.90;;;;;;;2.22;61.63;102230.27;2883508;82;21054;-69
2022/03/22 02:31:40;;;;;;;71.75;44.77;;;;;;;2.25;61.38;102235.47;2883791;82;21563;-69
2022/03/22 02:35:42;;;;;;;70.08;42.95;;;;;;;2.32;61.14;102227.90;2883789;82;20941;-69
2022/03/22 02:39:44;;;;;;;79.15;50.30;;;;;;;2.36;61.43;102232.23;2883911;82;21023;-69
2022/03/22 02:43:48;;;;;;;165.92;86.97;;;;;;;2.39;61.35;102230.87;2889239;81;21527;-69
2022/03/22 02:47:50;;;;;;;107.17;66.67;;;;;;;2.36;61.48;102229.61;2908653;81;21006;-69
2022/03/22 02:51:52;;;;;;;81.22;51.65;;;;;;;2.35;61.13;102234.88;2904912;81;21047;-69
2022/03/22 02:55:54;;;;;;;67.85;44.03;;;;;;;2.32;60.75;102231.84;2879309;82;21583;-68
2022/03/22 02:59:55;;;;;;;79.77;48.90;;;;;;;2.26;60.71;102237.20;2879817;82;21519;-69
2022/03/22 03:03:57;;;;;;;73.57;44.10;;;;;;;2.26;60.68;102241.14;2879909;82;20980;-68
2022/03/22 03:07:59;;;;;;;123.85;72.17;;;;;;;2.25;61.33;102247.28;2879723;82;21024;-69
2022/03/22 03:12:01;;;;;;;89.50;56.05;;;;;;;2.24;61.46;102246.86;2879670;82;21059;-69
2022/03/22 03:16:03;;;;;;;86.50;53.80;;;;;;;2.25;61.11;102244.66;2879687;82;21056;-68
2022/03/22 03:20:07;;;;;;;89.77;54.15;;;;;;;2.20;60.83;102245.18;2879711;82;21054;-68
2022/03/22 03:24:10;;;;;;;93.15;56.63;;;;;;;2.17;61.49;102238.20;2879717;82;21019;-69
2022/03/22 03:28:11;;;;;;;86.72;51.33;;;;;;;2.13;61.19;102240.46;2879783;82;21572;-69
2022/03/22 03:32:13;;;;;;;95.53;53.48;;;;;;;2.11;61.14;102253.60;2879815;82;21004;-69
2022/03/22 03:36:15;;;;;;;88.72;55.65;;;;;;;2.08;61.22;102251.48;2879670;82;21015;-69
2022/03/22 03:40:16;;;;;;;94.37;55.83;;;;;;;2.00;61.32;102259.01;2879964;82;21015;-69
2022/03/22 03:48:33;;;;;;;78.50;51.28;;;;;;;1.95;61.75;102254.70;2880143;82;21441;-69
2022/03/22 03:52:38;;;;;;;86.75;55.65;;;;;;;1.90;61.37;102244.30;2884057;82;21712;-69
2022/03/22 03:56:39;;;;;;;81.55;48.78;;;;;;;1.88;61.77;102245.19;2896427;82;21031;-69
2022/03/22 04:00:41;;;;;;;76.30;48.95;;;;;;;1.82;61.64;102243.09;2894812;82;21042;-70
2022/03/22 04:04:43;;;;;;;73.67;46.80;;;;;;;1.74;62.26;102242.30;2895201;82;21026;-69
2022/03/22 04:08:45;;;;;;;88.27;53.33;;;;;;;1.32;63.54;102243.27;2895424;82;21547;-69
2022/03/22 04:12:46;;;;;;;86.17;54.20;;;;;;;1.20;64.83;102249.09;2895423;82;21635;-73
2022/03/22 04:16:50;;;;;;;83.25;54.35;;;;;;;1.26;64.87;102252.95;2895475;82;21019;-73
2022/03/22 04:20:52;;;;;;;85.35;49.98;;;;;;;1.16;65.16;102259.63;2895550;82;20999;-73
2022/03/22 04:24:54;;;;;;;73.33;48.00;;;;;;;1.18;65.38;102259.16;2895536;82;21078;-73
2022/03/22 04:33:11;;;;;;;73.70;45.85;;;;;;;0.88;66.46;102268.62;2895693;82;21003;-73
2022/03/22 04:37:15;;;;;;;98.45;58.58;;;;;;;0.65;67.53;102273.64;2895752;82;20963;-73
2022/03/22 04:41:16;;;;;;;96.57;63.15;;;;;;;0.52;67.93;102274.19;2895336;82;21090;-73
2022/03/22 04:45:18;;;;;;;93.05;57.10;;;;;;;0.65;66.79;102269.70;2895381;82;20983;-73
2022/03/22 04:49:20;;;;;;;85.17;53.90;;;;;;;0.78;66.45;102268.27;2895251;82;20988;-73
2022/03/22 04:57:37;;;;;;;103.75;58.33;;;;;;;0.61;67.19;102274.98;2879464;82;21048;-72
2022/03/22 05:01:39;;;;;;;99.62;57.00;;;;;;;0.67;66.73;102283.66;2879623;82;21023;-72
2022/03/22 05:09:56;;;;;;;96.63;57.62;;;;;;;0.33;68.41;102283.91;2879382;82;21548;-70
2022/03/22 05:13:58;;;;;;;91.78;55.33;;;;;;;0.32;68.26;102287.41;2879262;82;21015;-70
2022/03/22 05:18:01;;;;;;;98.70;60.17;;;;;;;0.53;68.42;102284.20;2879266;82;21050;-69
2022/03/22 05:22:04;;;;;;;97.27;59.35;;;;;;;1.14;66.77;102289.34;2879245;82;21019;-69
2022/03/22 05:26:06;;;;;;;112.25;66.33;;;;;;;1.54;65.48;102285.86;2879518;82;20980;-69
2022/03/22 05:30:09;;;;;;;101.02;60.58;;;;;;;2.30;63.83;102282.67;2879550;82;21488;-69
2022/03/22 05:34:10;;;;;;;90.03;55.90;;;;;;;2.64;62.49;102279.06;2879801;82;21011;-68
2022/03/22 05:38:12;;;;;;;98.22;62.55;;;;;;;2.92;62.31;102283.83;2879782;82;21491;-69
2022/03/22 05:42:14;;;;;;;101.02;61.92;;;;;;;3.39;61.10;102285.16;2879869;82;21045;-70
2022/03/22 05:46:16;;;;;;;87.33;58.40;;;;;;;3.47;61.11;102287.64;2879985;82;21027;-70
2022/03/22 05:50:19;;;;;;;97.78;59.77;;;;;;;3.74;60.06;102282.73;2880082;82;21614;-71
2022/03/22 05:54:20;;;;;;;103.92;67.60;;;;;;;3.91;59.74;102281.48;2880096;82;21024;-70
2022/03/22 05:58:22;;;;;;;109.05;74.45;;;;;;;4.38;59.11;102287.45;2880374;82;21532;-70
2022/03/22 06:02:23;;;;;;;104.05;63.70;;;;;;;4.73;58.36;102289.27;2880565;82;21586;-70
2022/03/22 06:06:25;;;;;;;89.67;58.40;;;;;;;4.91;57.90;102290.09;2880215;82;21587;-70
2022/03/22 06:10:28;;;;;;;104.78;65.47;;;;;;;4.97;58.26;102292.59;2880885;82;21015;-69
2022/03/22 06:14:30;;;;;;;146.07;86.60;;;;;;;5.17;58.05;102297.80;2881376;81;21008;-70
2022/03/22 06:18:31;;;;;;;104.83;66.45;;;;;;;5.44;57.35;102295.30;2880984;82;20999;-69
2022/03/22 06:22:33;;;;;;;136.50;78.30;;;;;;;5.88;56.74;102290.08;2881276;82;21000;-70
2022/03/22 06:26:35;;;;;;;126.53;73.40;;;;;;;6.16;56.05;102294.58;2881305;82;21051;-70
2022/03/22 06:30:37;;;;;;;136.05;81.35;;;;;;;6.47;55.54;102290.94;2881365;82;21011;-69
2022/03/22 06:34:39;;;;;;;101.50;66.25;;;;;;;6.67;55.29;102292.95;2881656;82;21028;-69
2022/03/22 06:38:41;;;;;;;98.33;65.62;;;;;;;6.88;55.08;102294.46;2881529;82;20991;-69
2022/03/22 06:42:43;;;;;;;106.78;62.08;;;;;;;7.04;55.24;102297.43;2881782;82;21019;-70
2022/03/22 06:46:45;;;;;;;92.88;59.45;;;;;;;7.29;55.45;102305.38;2881696;82;21066;-70
2022/03/22 06:50:48;;;;;;;91.57;60.55;;;;;;;7.51;54.87;102299.30;2881879;82;21051;-70
2022/03/22 06:54:49;;;;;;;114.45;69.27;;;;;;;7.75;54.64;102296.66;2891014;82;21067;-69
2022/03/22 06:58:51;;;;;;;81.87;50.55;;;;;;;7.93;54.56;102304.39;2897662;82;21035;-70
2022/03/22 07:02:53;;;;;;;73.05;49.30;;;;;;;7.95;54.75;102296.76;2898128;82;21051;-69
2022/03/22 07:06:55;;;;;;;69.17;47.85;;;;;;;8.09;54.38;102302.00;2898084;82;21023;-71
2022/03/22 07:15:11;;;;;;;66.17;45.55;;;;;;;8.71;52.15;102300.87;2898686;82;21007;-71
2022/03/22 07:19:20;;;;;;;65.95;46.08;;;;;;;8.95;51.55;102304.28;2898615;82;21007;-70
2022/03/22 07:23:21;;;;;;;64.22;41.42;;;;;;;9.21;51.53;102303.61;2898782;82;21054;-71
2022/03/22 07:27:25;;;;;;;58.33;39.15;;;;;;;9.45;50.22;102302.15;2898843;82;21015;-70
2022/03/22 07:31:27;;;;;;;57.78;37.83;;;;;;;9.69;49.78;102301.95;2898910;82;21011;-71
2022/03/22 07:35:30;;;;;;;54.85;38.40;;;;;;;9.85;49.19;102296.78;2899046;82;20999;-70
2022/03/22 07:39:34;;;;;;;53.38;39.67;;;;;;;9.96;48.51;102302.92;2899046;82;20991;-71
2022/03/22 07:43:36;;;;;;;65.75;41.20;;;;;;;10.15;48.41;102297.61;2899010;82;21011;-70
2022/03/22 07:47:38;;;;;;;121.62;89.72;;;;;;;10.31;48.32;102307.48;2898805;82;21011;-70
2022/03/22 07:55:55;;;;;;;54.30;39.60;;;;;;;10.60;46.98;102307.42;2898812;82;21047;-71
2022/03/22 07:59:57;;;;;;;56.23;41.88;;;;;;;10.91;47.47;102314.36;2898866;82;21027;-70
2022/03/22 08:03:59;;;;;;;64.50;43.42;;;;;;;11.17;46.36;102307.66;2899428;82;21030;-69
2022/03/22 08:08:00;;;;;;;70.05;47.65;;;;;;;11.38;45.47;102311.47;2899604;82;21011;-71
2022/03/22 08:12:02;;;;;;;77.70;48.75;;;;;;;11.57;44.64;102298.88;2899978;82;21015;-70
2022/03/22 08:16:07;;;;;;;64.77;43.33;;;;;;;11.83;46.11;102296.62;2900073;82;21039;-70
2022/03/22 08:20:11;;;;;;;59.03;36.70;;;;;;;12.04;44.58;102291.06;2899996;82;21014;-69
2022/03/22 08:24:13;;;;;;;55.43;33.65;;;;;;;12.20;44.15;102292.88;2900271;82;20987;-69
2022/03/22 08:28:14;;;;;;;57.73;34.75;;;;;;;12.30;45.24;102288.72;2900229;82;20975;-69
2022/03/22 08:32:16;;;;;;;49.25;30.60;;;;;;;12.54;44.00;102286.91;2900426;82;21007;-69
2022/03/22 08:36:18;;;;;;;72.12;37.00;;;;;;;12.63;42.99;102282.38;2900130;82;21039;-69
2022/03/22 08:40:20;;;;;;;51.23;32.85;;;;;;;12.79;42.12;102286.81;2900382;82;21051;-69
2022/03/22 08:44:22;;;;;;;45.90;32.08;;;;;;;12.91;43.27;102286.06;2900738;82;20968;-68
2022/03/22 08:48:24;;;;;;;51.90;32.00;;;;;;;13.15;41.32;102284.19;2900284;82;21022;-69
2022/03/22 08:52:26;;;;;;;44.60;31.07;;;;;;;13.27;42.08;102282.61;2900834;82;20971;-70
2022/03/22 08:56:28;;;;;;;42.83;26.40;;;;;;;13.47;42.30;102269.35;2887492;82;20976;-69
2022/03/22 09:00:29;;;;;;;43.63;29.85;;;;;;;13.66;42.26;102274.88;2885033;82;21043;-69
2022/03/22 09:08:47;;;;;;;46.00;29.15;;;;;;;13.93;40.34;102262.89;2884462;82;28174;-70
2022/03/22 09:12:49;;;;;;;45.50;27.77;;;;;;;14.09;40.20;102258.73;2884727;82;20977;-69
2022/03/22 09:16:52;;;;;;;37.40;26.25;;;;;;;14.26;39.79;102250.07;2884999;82;20983;-69
2022/03/22 09:20:54;;;;;;;43.78;31.35;;;;;;;14.40;39.87;102255.38;2884887;82;20933;-69
2022/03/22 09:24:56;;;;;;;45.75;30.35;;;;;;;14.43;39.85;102255.16;2885011;82;21007;-70
2022/03/22 09:28:58;;;;;;;44.98;26.30;;;;;;;14.56;41.49;102252.51;2884775;82;21059;-69
2022/03/22 09:33:02;;;;;;;37.25;25.75;;;;;;;14.67;39.56;102246.92;2884983;82;21041;-69
2022/03/22 09:37:03;;;;;;;40.38;28.05;;;;;;;14.79;38.87;102238.05;2885060;82;20988;-69
2022/03/22 09:41:06;;;;;;;38.63;27.37;;;;;;;14.89;39.00;102238.28;2884988;82;20975;-70
2022/03/22 09:45:09;;;;;;;46.63;29.72;;;;;;;15.08;38.79;102239.67;2884977;82;21027;-69
2022/03/22 09:49:11;;;;;;;38.73;27.35;;;;;;;15.26;38.92;102237.03;2884916;82;21024;-69
2022/03/22 09:53:16;;;;;;;36.23;27.45;;;;;;;15.45;38.53;102226.34;2885087;82;20984;-69
2022/03/22 09:57:18;;;;;;;40.48;27.15;;;;;;;15.62;38.64;102230.97;2900255;82;21074;-70
2022/03/22 10:01:21;;;;;;;43.20;28.75;;;;;;;15.76;38.27;102224.59;2900301;82;21007;-69
2022/03/22 10:05:24;;;;;;;34.98;26.48;;;;;;;15.88;38.35;102220.15;2900696;80;21003;-69
2022/03/22 10:09:31;;;;;;;32.28;23.57;;;;;;;15.95;38.68;102212.91;2900632;82;21085;-69
2022/03/22 10:13:35;;;;;;;40.35;28.65;;;;;;;16.13;36.34;102216.06;2900828;82;21003;-69
2022/03/22 10:17:37;;;;;;;39.48;29.23;;;;;;;16.26;37.49;102212.43;2900753;82;21662;-69
2022/03/22 10:21:45;;;;;;;45.12;31.48;;;;;;;16.28;36.78;102211.83;2900769;82;21333;-69
2022/03/22 10:25:47;;;;;;;39.50;27.55;;;;;;;16.31;36.95;102214.78;2900875;82;21062;-68
2022/03/22 10:29:48;;;;;;;36.05;25.50;;;;;;;16.35;36.37;102209.53;2900895;82;21014;-69
2022/03/22 10:33:53;;;;;;;36.17;20.92;;;;;;;16.45;36.69;102212.38;2901133;82;20983;-70
2022/03/22 10:37:59;;;;;;;35.73;21.55;;;;;;;16.55;35.30;102199.97;2900848;82;20975;-69
2022/03/22 10:42:05;;;;;;;;;;;;;;;16.67;35.48;102205.71;2903596;82;21014;-69
2022/03/22 10:46:11;;;;;;;27.67;21.12;;;;;;;16.81;34.06;102196.60;2901226;82;20126;-69
2022/03/22 10:50:14;;;;;;;22.07;15.32;;;;;;;16.93;34.71;102201.50;2901191;82;21043;-69
2022/03/22 10:54:19;;;;;;;34.18;22.00;;;;;;;17.09;33.70;102195.78;2898516;82;21031;-69
2022/03/22 10:58:26;;;;;;;26.17;19.48;;;;;;;17.18;34.74;102190.16;2885100;82;21332;-69
2022/03/22 11:02:34;;;;;;;19.65;14.63;;;;;;;17.29;33.82;102183.92;2885150;82;20982;-69
2022/03/22 11:06:38;;;;;;;28.05;17.75;;;;;;;17.34;32.42;102178.17;2884648;82;21059;-69
2022/03/22 11:10:41;;;;;;;21.87;15.28;;;;;;;17.36;34.09;102173.52;2885073;82;20999;-70
2022/03/22 11:14:43;;;;;;;28.32;17.80;;;;;;;17.35;32.92;102161.06;2885093;82;20985;-69
2022/03/22 11:18:46;;;;;;;22.32;15.85;;;;;;;17.36;33.78;102166.80;2885075;81;20964;-68
2022/03/22 11:22:55;;;;;;;20.55;13.48;;;;;;;17.41;33.09;102157.86;2885112;82;21530;-69
2022/03/22 11:26:57;;;;;;;13.98;10.78;;;;;;;17.19;32.74;102158.26;2885228;82;21083;-69
2022/03/22 11:31:00;;;;;;;17.80;11.40;;;;;;;17.41;31.34;102147.09;2885009;82;21011;-69
2022/03/22 11:35:02;;;;;;;21.33;12.00;;;;;;;17.43;31.44;102145.13;2858481;82;21015;-69
2022/03/22 11:39:04;;;;;;;17.23;10.95;;;;;;;17.61;32.20;102140.56;2884635;82;21071;-69
2022/03/22 11:43:11;;;;;;;20.55;13.43;;;;;;;17.60;33.20;102136.17;2884954;82;20975;-68
2022/03/22 11:47:16;;;;;;;20.48;15.50;;;;;;;17.83;32.40;102133.76;2885087;81;21023;-70
2022/03/22 11:51:23;;;;;;;18.90;14.05;;;;;;;17.98;34.48;102133.45;2885062;82;21007;-69
2022/03/22 11:55:26;;;;;;;24.90;15.38;;;;;;;18.03;33.84;102128.56;2884975;82;21059;-70
2022/03/22 11:59:28;;;;;;;22.37;14.65;;;;;;;18.13;33.32;102122.77;2885051;82;21039;-69
2022/03/22 12:03:33;;;;;;;23.12;15.75;;;;;;;18.02;33.37;102118.78;2885037;82;20995;-69
2022/03/22 12:07:37;;;;;;;21.07;14.85;;;;;;;18.07;32.62;102115.19;2885277;82;21023;-69
2022/03/22 12:11:49;;;;;;;21.48;15.63;;;;;;;18.09;34.00;102110.56;2884948;82;21035;-69
2022/03/22 12:16:05;;;;;;;16.50;14.55;;;;;;;18.13;33.63;102105.27;2885161;82;21051;-69
2022/03/22 12:20:11;;;;;;;16.93;13.25;;;;;;;18.10;33.12;102093.41;2885194;82;20956;-69
2022/03/22 12:24:14;;;;;;;15.18;13.18;;;;;;;18.03;32.74;102088.69;2883169;82;21027;-69
2022/03/22 12:28:16;;;;;;;24.20;15.40;;;;;;;18.19;33.29;102081.48;2884967;82;21038;-69
2022/03/22 12:32:21;;;;;;;17.17;12.78;;;;;;;18.19;32.29;102082.83;2884956;82;21051;-69
2022/03/22 12:36:22;;;;;;;31.52;15.25;;;;;;;18.06;32.34;102075.79;2884902;82;21004;-69
2022/03/22 12:40:25;;;;;;;33.38;15.13;;;;;;;18.27;32.45;102069.53;2884659;82;20991;-69
2022/03/22 12:44:27;;;;;;;17.48;11.70;;;;;;;18.32;32.29;102063.28;2884987;82;20992;-69
2022/03/22 12:48:30;;;;;;;15.18;12.60;;;;;;;18.33;32.10;102062.77;2884924;82;20983;-69
2022/03/22 12:52:32;;;;;;;13.50;12.10;;;;;;;18.44;31.37;102055.96;2884873;82;21047;-69
2022/03/22 12:56:34;;;;;;;20.50;13.43;;;;;;;18.55;31.70;102052.32;2872535;82;20932;-69
2022/03/22 13:00:39;;;;;;;15.40;12.65;;;;;;;18.61;30.85;102046.38;2909663;82;21026;-69
2022/03/22 13:04:46;;;;;;;15.73;11.10;;;;;;;18.73;30.94;102046.30;2909419;82;20995;-69
2022/03/22 13:13:03;;;;;;;12.60;11.10;;;;;;;18.78;30.53;102041.34;2909898;82;20991;-69
2022/03/22 13:17:05;;;;;;;13.43;9.23;;;;;;;18.89;30.95;102041.72;2909686;82;20994;-69
2022/03/22 13:21:09;;;;;;;12.63;9.73;;;;;;;18.94;30.57;102031.37;2909612;82;21014;-68
2022/03/22 13:25:11;;;;;;;21.52;15.32;;;;;;;19.00;31.80;102036.73;2849446;83;20975;-69
2022/03/22 13:29:16;;;;;;;13.40;10.30;;;;;;;19.01;30.49;102019.56;2909596;82;20987;-69
2022/03/22 13:33:22;;;;;;;22.48;10.98;;;;;;;19.07;30.95;102017.17;2909236;82;20983;-69
2022/03/22 13:37:24;;;;;;;15.63;9.78;;;;;;;19.02;29.92;102017.22;2909520;82;20991;-68
2022/03/22 13:41:27;;;;;;;14.33;9.70;;;;;;;19.09;30.71;102017.05;2909486;82;21019;-69
2022/03/22 13:45:29;;;;;;;13.75;9.85;;;;;;;19.09;30.71;102013.00;2849631;83;21038;-69
2022/03/22 13:49:36;;;;;;;15.98;10.48;;;;;;;19.11;30.11;102006.45;2909638;81;20975;-70
2022/03/22 13:53:38;;;;;;;13.65;11.08;;;;;;;19.21;31.60;102000.23;2909303;82;21704;-69
2022/03/22 13:57:41;;;;;;;13.93;11.40;;;;;;;19.12;30.37;102001.92;2889271;82;21039;-69
2022/03/22 14:01:45;;;;;;;16.67;11.83;;;;;;;19.14;30.51;101997.23;2884526;82;21052;-69
2022/03/22 14:05:47;;;;;;;22.17;12.37;;;;;;;19.20;30.74;101992.62;2884630;82;21043;-69
2022/03/22 14:09:50;;;;;;;16.35;12.07;;;;;;;19.19;30.61;101994.12;2884727;82;20989;-69
2022/03/22 14:13:51;;;;;;;20.43;13.50;;;;;;;19.14;30.10;101991.84;2883432;82;21428;-69
2022/03/22 14:17:53;;;;;;;22.27;13.22;;;;;;;19.13;31.09;101983.40;2883288;82;21007;-70
2022/03/22 14:21:56;;;;;;;15.70;13.20;;;;;;;19.14;31.43;101979.70;2884060;82;20960;-70
2022/03/22 14:25:58;;;;;;;12.85;10.63;;;;;;;19.12;31.45;101974.44;2883419;82;21039;-70
2022/03/22 14:30:01;;;;;;;15.10;11.78;;;;;;;19.12;32.51;101971.73;2883365;82;20988;-70
2022/03/22 14:34:03;;;;;;;15.78;12.13;;;;;;;19.16;32.37;101972.80;2882858;82;21086;-71
2022/03/22 14:38:05;;;;;;;15.80;13.65;;;;;;;19.20;31.63;101957.55;2883027;82;20964;-71
2022/03/22 14:42:08;;;;;;;21.10;14.43;;;;;;;19.24;32.17;101961.66;2882504;82;21027;-70
2022/03/22 14:46:11;;;;;;;19.73;14.65;;;;;;;19.22;32.41;101960.13;2882567;82;21058;-69
2022/03/22 14:50:12;;;;;;;16.65;12.28;;;;;;;19.13;31.44;101957.77;2882975;82;21507;-71
2022/03/22 14:54:14;;;;;;;15.95;11.28;;;;;;;19.11;31.98;101944.93;2882951;82;21035;-71
2022/03/22 15:02:31;;;;;;;21.15;12.90;;;;;;;19.07;32.26;101942.17;2883182;82;21004;-70
2022/03/22 15:06:33;;;;;;;15.03;11.05;;;;;;;19.06;32.31;101939.95;2883129;82;20960;-71
2022/03/22 15:10:34;;;;;;;21.90;14.18;;;;;;;19.01;32.48;101930.58;2883165;82;21020;-70
2022/03/22 15:14:37;;;;;;;15.35;12.68;;;;;;;18.93;32.40;101930.77;2883148;82;21045;-70
2022/03/22 15:18:39;;;;;;;18.50;14.45;;;;;;;18.88;33.22;101927.66;2883025;82;21024;-71
2022/03/22 15:22:41;;;;;;;18.57;14.38;;;;;;;18.79;33.38;101922.61;2882704;82;21000;-71
2022/03/22 15:26:42;;;;;;;34.90;29.70;;;;;;;18.72;33.58;101913.86;2883701;82;21027;-70
2022/03/22 15:30:46;;;;;;;14.30;12.03;;;;;;;18.66;34.32;101916.10;2885014;82;20976;-70
2022/03/22 15:34:48;;;;;;;20.40;14.98;;;;;;;18.59;34.11;101914.97;2885125;82;21448;-70
2022/03/22 15:38:50;;;;;;;25.85;17.15;;;;;;;18.52;34.54;101912.48;2884987;82;21035;-70
2022/03/22 15:42:52;;;;;;;26.80;14.50;;;;;;;18.47;35.54;101910.20;2885218;82;21023;-70
2022/03/22 15:46:53;;;;;;;21.30;14.98;;;;;;;18.42;35.90;101905.72;2885205;82;20960;-69
2022/03/22 15:50:55;;;;;;;19.87;12.53;;;;;;;18.39;36.11;101901.45;2885372;82;21064;-71
2022/03/22 15:54:57;;;;;;;16.67;13.08;;;;;;;18.32;36.04;101909.73;2885454;81;21024;-70
2022/03/22 15:58:58;;;;;;;20.57;15.48;;;;;;;18.20;35.64;101908.13;2901208;82;21052;-70
2022/03/22 16:03:00;;;;;;;15.63;14.05;;;;;;;18.10;35.71;101907.61;2901025;82;20983;-71
2022/03/22 16:07:02;;;;;;;35.73;17.60;;;;;;;18.01;36.54;101903.00;2900876;82;20956;-70
2022/03/22 16:11:03;;;;;;;22.52;14.78;;;;;;;17.89;36.82;101894.16;2900846;82;20975;-69
2022/03/22 16:15:09;;;;;;;24.37;17.87;;;;;;;17.77;36.93;101898.78;2900297;82;21047;-70
2022/03/22 16:19:12;;;;;;;19.87;14.68;;;;;;;17.60;37.29;101889.98;2900751;82;21027;-70
2022/03/22 16:23:29;;;;;;;25.23;15.93;;;;;;;17.41;37.52;101892.44;2901090;82;20975;-69
2022/03/22 16:27:26;;;;;;;20.72;13.85;;;;;;;17.21;38.27;101895.47;2898756;81;20947;-69
2022/03/22 16:31:27;;;;;;;23.07;14.38;;;;;;;16.95;38.06;101889.56;2900709;82;21015;-69
2022/03/22 16:39:45;;;;;;;23.32;15.35;;;;;;;16.60;38.26;101878.56;2901248;82;20975;-69
2022/03/22 16:43:46;;;;;;;21.87;15.03;;;;;;;16.42;39.17;101882.64;2865446;82;21412;-70
2022/03/22 16:47:48;;;;;;;16.48;12.58;;;;;;;16.18;39.86;101880.11;2841349;84;20963;-69
2022/03/22 16:51:50;;;;;;;24.37;16.62;;;;;;;15.87;40.96;101877.66;2841631;83;20983;-70
2022/03/22 16:55:53;;;;;;;22.42;14.93;;;;;;;15.55;41.17;101882.77;2842134;83;21066;-69
2022/03/22 16:59:55;;;;;;;23.45;16.00;;;;;;;15.27;41.41;101886.72;2846384;82;21034;-69
2022/03/22 17:03:57;;;;;;;18.40;13.32;;;;;;;15.02;41.88;101886.39;2844166;83;21003;-68
2022/03/22 17:07:59;;;;;;;22.65;14.55;;;;;;;14.77;42.01;101886.89;2843558;83;21014;-69
2022/03/22 17:12:01;;;;;;;25.60;15.45;;;;;;;14.56;41.99;101890.16;2843957;83;21015;-70
2022/03/22 17:16:03;;;;;;;22.58;16.85;;;;;;;14.39;42.20;101886.89;2844932;83;21038;-70
2022/03/22 17:20:08;;;;;;;28.40;17.80;;;;;;;14.21;42.47;101889.56;2818588;83;21034;-70
2022/03/22 17:24:09;;;;;;;26.75;16.57;;;;;;;13.95;43.08;101881.08;2844582;83;20991;-70
2022/03/22 17:28:17;;;;;;;27.07;17.10;;;;;;;13.65;43.74;101884.09;2844511;83;21605;-71
2022/03/22 17:32:19;;;;;;;22.15;17.67;;;;;;;13.34;44.17;101883.03;2844633;83;20959;-72
2022/03/22 17:36:23;;;;;;;23.05;18.02;;;;;;;13.09;44.21;101887.37;2844610;83;20995;-70
2022/03/22 17:40:25;;;;;;;31.70;20.52;;;;;;;12.94;44.23;101889.72;2844571;83;21010;-71
2022/03/22 17:44:27;;;;;;;31.42;22.80;;;;;;;12.82;43.99;101886.89;2844596;83;21388;-70
2022/03/22 17:48:28;;;;;;;42.98;28.30;;;;;;;12.76;43.97;101890.44;2844502;83;20955;-71
2022/03/22 17:52:30;;;;;;;88.58;39.40;;;;;;;12.63;44.56;101887.72;2843701;83;21579;-72
2022/03/22 17:56:32;;;;;;;57.05;35.73;;;;;;;12.48;44.59;101889.12;2842947;83;21055;-70
2022/03/22 18:00:34;;;;;;;74.03;46.13;;;;;;;12.36;44.86;101892.07;2839046;84;21043;-70
2022/03/22 18:04:36;;;;;;;71.20;38.85;;;;;;;12.24;44.88;101896.38;2839498;83;21008;-70
2022/03/22 18:08:37;;;;;;;60.28;36.68;;;;;;;11.98;46.71;101897.98;2839318;83;21086;-71
2022/03/22 18:12:42;;;;;;;73.35;48.35;;;;;;;11.63;47.29;101893.03;2838776;84;21014;-71
2022/03/22 18:16:47;;;;;;;160.48;103.40;;;;;;;11.38;47.51;101902.02;2838470;84;21547;-69
2022/03/22 18:20:49;;;;;;;204.50;126.75;;;;;;;11.09;48.54;101909.91;2838361;84;20994;-69
2022/03/22 18:24:51;;;;;;;176.95;109.40;;;;;;;11.00;48.54;101907.33;2837682;84;21050;-70
2022/03/22 18:28:52;;;;;;;175.68;106.72;;;;;;;10.93;48.08;101907.77;2836586;82;21572;-70
2022/03/22 18:32:54;;;;;;;155.55;91.95;;;;;;;10.88;48.70;101912.48;2836703;84;21078;-71
2022/03/22 18:36:56;;;;;;;142.32;83.05;;;;;;;10.71;49.25;101911.17;2836146;84;21030;-71
2022/03/22 18:40:57;;;;;;;158.15;98.33;;;;;;;10.65;48.24;101917.30;2863211;81;21021;-71
2022/03/22 18:44:59;;;;;;;195.05;118.95;;;;;;;10.57;48.46;101912.41;2884145;82;20977;-69
2022/03/22 18:49:03;;;;;;;160.88;103.55;;;;;;;10.49;48.77;101910.66;2884190;82;21572;-70
2022/03/22 18:53:05;;;;;;;130.72;84.35;;;;;;;10.41;48.68;101908.42;2884133;82;21001;-70
2022/03/22 18:57:07;;;;;;;129.55;82.72;;;;;;;10.27;49.31;101907.83;2883687;82;21044;-71
2022/03/22 19:01:09;;;;;;;173.95;100.65;;;;;;;10.10;50.29;101909.60;2884280;82;21036;-70
2022/03/22 19:05:11;;;;;;;84.45;52.98;;;;;;;9.96;50.35;101912.13;2884063;82;21028;-71
2022/03/22 19:09:13;;;;;;;94.62;59.20;;;;;;;9.86;50.86;101907.32;2884311;82;21020;-70
2022/03/22 19:13:14;;;;;;;140.18;60.90;;;;;;;9.83;50.43;101908.81;2884126;82;21052;-70